sensor_id;sensor_type;location;lat;lon;timestamp;pressure;altitude;pressure_sealevel;temperature;humidity
8101;BME280;4093;53.470;9.832;2022-09-27T00:02:13;99215.63;;;13.56;97.99
8101;BME280;4093;53.470;9.832;2022-09-27T00:04:41;99210.13;;;13.46;97.83
8101;BME280;4093;53.470;9.832;2022-09-27T00:07:10;99209.34;;;13.44;97.72
8101;BME280;4093;53.470;9.832;2022-09-27T00:09:38;99199.22;;;13.39;97.98
8101;BME280;4093;53.470;9.832;2022-09-27T00:12:06;99201.56;;;13.44;97.96
8101;BME280;4093;53.470;9.832;2022-09-27T00:14:34;99209.28;;;13.61;97.12
8101;BME280;4093;53.470;9.832;2022-09-27T00:17:01;99201.22;;;13.50;97.21
8101;BME280;4093;53.470;9.832;2022-09-27T00:19:29;99193.09;;;13.25;98.36
8101;BME280;4093;53.470;9.832;2022-09-27T00:21:57;99194.53;;;13.46;98.07
8101;BME280;4093;53.470;9.832;2022-09-27T00:24:28;99198.97;;;13.60;96.58
8101;BME280;4093;53.470;9.832;2022-09-27T00:26:57;99182.66;;;13.42;98.33
8101;BME280;4093;53.470;9.832;2022-09-27T00:29:25;99195.03;;;13.69;96.71
8101;BME280;4093;53.470;9.832;2022-09-27T00:31:53;99187.91;;;13.56;97.00
8101;BME280;4093;53.470;9.832;2022-09-27T00:34:23;99155.25;;;13.36;96.94
8101;BME280;4093;53.470;9.832;2022-09-27T00:36:51;99191.00;;;13.79;96.51
8101;BME280;4093;53.470;9.832;2022-09-27T00:39:20;99186.81;;;13.76;95.76
8101;BME280;4093;53.470;9.832;2022-09-27T00:41:50;99183.47;;;13.74;96.33
8101;BME280;4093;53.470;9.832;2022-09-27T00:47:34;99164.47;;;13.58;96.32
8101;BME280;4093;53.470;9.832;2022-09-27T00:50:08;99164.81;;;13.36;97.86
8101;BME280;4093;53.470;9.832;2022-09-27T00:52:42;99161.03;;;13.41;96.78
8101;BME280;4093;53.470;9.832;2022-09-27T00:55:14;99162.72;;;13.42;97.14
8101;BME280;4093;53.470;9.832;2022-09-27T00:57:45;99170.75;;;13.54;97.93
8101;BME280;4093;53.470;9.832;2022-09-27T01:00:13;99147.50;;;13.03;98.64
8101;BME280;4093;53.470;9.832;2022-09-27T01:02:44;99158.97;;;13.15;99.62
8101;BME280;4093;53.470;9.832;2022-09-27T01:05:15;99152.00;;;12.84;100.00
8101;BME280;4093;53.470;9.832;2022-09-27T01:07:45;99156.34;;;13.48;98.15
8101;BME280;4093;53.470;9.832;2022-09-27T01:10:14;99154.28;;;13.06;100.00
8101;BME280;4093;53.470;9.832;2022-09-27T01:12:55;99153.81;;;13.31;99.84
8101;BME280;4093;53.470;9.832;2022-09-27T01:15:30;99151.94;;;13.01;100.00
8101;BME280;4093;53.470;9.832;2022-09-27T01:18:13;99154.81;;;13.28;99.75
8101;BME280;4093;53.470;9.832;2022-09-27T01:21:12;99150.66;;;13.26;99.48
8101;BME280;4093;53.470;9.832;2022-09-27T01:23:56;99154.44;;;13.36;99.19
8101;BME280;4093;53.470;9.832;2022-09-27T01:26:51;99149.06;;;13.39;99.13
8101;BME280;4093;53.470;9.832;2022-09-27T01:29:35;99153.91;;;13.61;97.76
8101;BME280;4093;53.470;9.832;2022-09-27T01:32:16;99146.03;;;13.47;97.58
8101;BME280;4093;53.470;9.832;2022-09-27T01:34:48;99143.06;;;13.21;99.72
8101;BME280;4093;53.470;9.832;2022-09-27T01:37:28;99144.09;;;13.50;98.00
8101;BME280;4093;53.470;9.832;2022-09-27T01:40:09;99137.84;;;13.38;98.16
8101;BME280;4093;53.470;9.832;2022-09-27T01:42:46;99130.53;;;13.13;99.31
8101;BME280;4093;53.470;9.832;2022-09-27T01:45:20;99129.78;;;13.27;99.30
8101;BME280;4093;53.470;9.832;2022-09-27T01:47:54;99107.53;;;13.39;97.10
8101;BME280;4093;53.470;9.832;2022-09-27T01:50:28;99129.78;;;13.43;97.67
8101;BME280;4093;53.470;9.832;2022-09-27T01:53:01;99129.09;;;13.55;96.52
8101;BME280;4093;53.470;9.832;2022-09-27T01:55:31;99130.16;;;13.83;95.91
8101;BME280;4093;53.470;9.832;2022-09-27T01:58:05;99122.00;;;13.89;94.85
8101;BME280;4093;53.470;9.832;2022-09-27T02:00:36;99115.00;;;13.75;95.49
8101;BME280;4093;53.470;9.832;2022-09-27T02:03:09;99118.97;;;13.67;96.51
8101;BME280;4093;53.470;9.832;2022-09-27T02:05:41;99114.50;;;13.69;96.30
8101;BME280;4093;53.470;9.832;2022-09-27T02:08:16;99108.94;;;13.45;96.96
8101;BME280;4093;53.470;9.832;2022-09-27T02:10:46;99118.09;;;13.66;96.89
8101;BME280;4093;53.470;9.832;2022-09-27T02:13:19;99115.34;;;13.69;96.71
8101;BME280;4093;53.470;9.832;2022-09-27T02:15:54;99114.56;;;13.83;95.77
8101;BME280;4093;53.470;9.832;2022-09-27T02:18:28;99111.06;;;13.68;96.54
8101;BME280;4093;53.470;9.832;2022-09-27T02:21:01;99109.91;;;13.74;95.22
8101;BME280;4093;53.470;9.832;2022-09-27T02:23:35;99108.66;;;13.95;94.45
8101;BME280;4093;53.470;9.832;2022-09-27T02:26:12;99107.88;;;13.79;94.95
8101;BME280;4093;53.470;9.832;2022-09-27T02:28:44;99100.50;;;13.71;95.63
8101;BME280;4093;53.470;9.832;2022-09-27T02:31:15;99094.66;;;13.68;94.98
8101;BME280;4093;53.470;9.832;2022-09-27T02:33:48;99101.22;;;13.89;95.33
8101;BME280;4093;53.470;9.832;2022-09-27T02:36:17;99100.50;;;13.71;96.18
8101;BME280;4093;53.470;9.832;2022-09-27T02:38:45;99100.13;;;13.93;95.23
8101;BME280;4093;53.470;9.832;2022-09-27T02:41:14;99090.78;;;13.75;95.75
8101;BME280;4093;53.470;9.832;2022-09-27T02:43:44;99090.69;;;13.76;96.52
8101;BME280;4093;53.470;9.832;2022-09-27T02:46:32;99090.03;;;13.73;95.37
8101;BME280;4093;53.470;9.832;2022-09-27T02:49:17;99082.91;;;13.76;95.57
8101;BME280;4093;53.470;9.832;2022-09-27T02:51:57;99088.59;;;13.83;95.64
8101;BME280;4093;53.470;9.832;2022-09-27T02:54:34;99089.78;;;13.77;95.73
8101;BME280;4093;53.470;9.832;2022-09-27T02:57:12;99086.66;;;13.86;95.23
8101;BME280;4093;53.470;9.832;2022-09-27T02:59:51;99094.84;;;14.09;95.09
8101;BME280;4093;53.470;9.832;2022-09-27T03:02:28;99087.28;;;13.90;95.07
8101;BME280;4093;53.470;9.832;2022-09-27T03:05:02;99073.81;;;13.83;94.94
8101;BME280;4093;53.470;9.832;2022-09-27T03:07:32;99085.47;;;14.06;94.45
8101;BME280;4093;53.470;9.832;2022-09-27T03:10:01;99077.59;;;14.08;94.27
8101;BME280;4093;53.470;9.832;2022-09-27T03:12:28;99077.66;;;14.06;94.03
8101;BME280;4093;53.470;9.832;2022-09-27T03:14:58;99068.22;;;14.05;94.68
8101;BME280;4093;53.470;9.832;2022-09-27T03:17:27;99071.28;;;13.98;95.25
8101;BME280;4093;53.470;9.832;2022-09-27T03:19:54;99078.59;;;14.05;94.20
8101;BME280;4093;53.470;9.832;2022-09-27T03:22:24;99057.53;;;14.10;94.59
8101;BME280;4093;53.470;9.832;2022-09-27T03:24:52;99072.13;;;14.27;93.76
8101;BME280;4093;53.470;9.832;2022-09-27T03:27:19;99065.28;;;14.26;93.60
8101;BME280;4093;53.470;9.832;2022-09-27T03:29:47;99055.75;;;13.96;95.13
8101;BME280;4093;53.470;9.832;2022-09-27T03:32:15;99050.03;;;13.75;95.48
8101;BME280;4093;53.470;9.832;2022-09-27T03:34:44;99046.00;;;13.85;95.19
8101;BME280;4093;53.470;9.832;2022-09-27T03:37:12;99044.38;;;13.69;96.67
8101;BME280;4093;53.470;9.832;2022-09-27T03:39:41;99049.19;;;14.05;95.68
8101;BME280;4093;53.470;9.832;2022-09-27T03:42:08;99047.88;;;14.12;94.36
8101;BME280;4093;53.470;9.832;2022-09-27T03:44:36;99038.50;;;13.95;95.25
8101;BME280;4093;53.470;9.832;2022-09-27T03:47:04;99046.22;;;14.11;94.67
8101;BME280;4093;53.470;9.832;2022-09-27T03:49:32;99030.31;;;13.73;95.92
8101;BME280;4093;53.470;9.832;2022-09-27T03:52:01;99047.72;;;14.01;95.75
8101;BME280;4093;53.470;9.832;2022-09-27T03:54:28;99047.50;;;14.04;94.71
8101;BME280;4093;53.470;9.832;2022-09-27T03:56:58;99036.09;;;14.06;94.94
8101;BME280;4093;53.470;9.832;2022-09-27T03:59:26;99038.25;;;14.14;94.18
8101;BME280;4093;53.470;9.832;2022-09-27T04:01:53;99031.25;;;14.00;94.72
8101;BME280;4093;53.470;9.832;2022-09-27T04:04:21;99017.13;;;13.76;95.16
8101;BME280;4093;53.470;9.832;2022-09-27T04:06:50;99035.72;;;13.98;95.50
8101;BME280;4093;53.470;9.832;2022-09-27T04:09:18;99029.00;;;13.80;96.65
8101;BME280;4093;53.470;9.832;2022-09-27T04:11:46;99002.16;;;13.65;96.38
8101;BME280;4093;53.470;9.832;2022-09-27T04:14:15;99026.19;;;13.69;97.24
8101;BME280;4093;53.470;9.832;2022-09-27T04:16:43;99036.22;;;13.75;97.10
8101;BME280;4093;53.470;9.832;2022-09-27T04:19:11;99033.91;;;13.84;96.21
8101;BME280;4093;53.470;9.832;2022-09-27T04:21:39;99031.97;;;13.88;96.04
8101;BME280;4093;53.470;9.832;2022-09-27T04:24:07;99039.34;;;13.96;95.31
8101;BME280;4093;53.470;9.832;2022-09-27T04:26:37;99036.84;;;14.08;95.29
8101;BME280;4093;53.470;9.832;2022-09-27T04:29:06;99032.47;;;14.09;95.25
8101;BME280;4093;53.470;9.832;2022-09-27T04:31:36;99039.06;;;14.00;95.93
8101;BME280;4093;53.470;9.832;2022-09-27T04:34:04;99041.69;;;14.15;94.28
8101;BME280;4093;53.470;9.832;2022-09-27T04:36:32;99037.69;;;14.09;95.64
8101;BME280;4093;53.470;9.832;2022-09-27T04:39:00;99042.03;;;14.08;95.23
8101;BME280;4093;53.470;9.832;2022-09-27T04:41:29;99037.41;;;14.28;93.98
8101;BME280;4093;53.470;9.832;2022-09-27T04:43:57;99035.47;;;14.17;94.67
8101;BME280;4093;53.470;9.832;2022-09-27T04:46:25;99031.34;;;13.99;95.04
8101;BME280;4093;53.470;9.832;2022-09-27T04:48:58;99025.34;;;13.98;95.65
8101;BME280;4093;53.470;9.832;2022-09-27T04:51:27;99028.72;;;13.84;96.47
8101;BME280;4093;53.470;9.832;2022-09-27T04:53:55;99031.00;;;14.19;94.95
8101;BME280;4093;53.470;9.832;2022-09-27T04:56:23;99029.81;;;14.10;95.11
8101;BME280;4093;53.470;9.832;2022-09-27T04:58:51;99034.16;;;14.24;95.20
8101;BME280;4093;53.470;9.832;2022-09-27T05:01:19;98990.72;;;14.12;93.49
8101;BME280;4093;53.470;9.832;2022-09-27T05:03:48;99032.75;;;14.19;94.13
8101;BME280;4093;53.470;9.832;2022-09-27T05:06:17;99031.81;;;14.05;95.06
8101;BME280;4093;53.470;9.832;2022-09-27T05:08:45;99037.84;;;14.06;94.46
8101;BME280;4093;53.470;9.832;2022-09-27T05:11:13;99035.53;;;14.01;95.19
8101;BME280;4093;53.470;9.832;2022-09-27T05:13:41;98978.16;;;13.76;94.56
8101;BME280;4093;53.470;9.832;2022-09-27T05:16:09;99040.00;;;14.14;95.27
8101;BME280;4093;53.470;9.832;2022-09-27T05:18:37;99046.16;;;14.27;95.14
8101;BME280;4093;53.470;9.832;2022-09-27T05:21:05;99044.28;;;14.29;93.99
8101;BME280;4093;53.470;9.832;2022-09-27T05:23:34;98999.72;;;13.92;94.59
8101;BME280;4093;53.470;9.832;2022-09-27T05:26:03;99028.22;;;14.22;93.62
8101;BME280;4093;53.470;9.832;2022-09-27T05:28:31;99035.56;;;14.30;94.48
8101;BME280;4093;53.470;9.832;2022-09-27T05:31:00;99027.38;;;14.22;94.53
8101;BME280;4093;53.470;9.832;2022-09-27T05:33:29;99030.16;;;14.19;95.30
8101;BME280;4093;53.470;9.832;2022-09-27T05:35:56;99022.69;;;13.84;96.37
8101;BME280;4093;53.470;9.832;2022-09-27T05:38:25;99037.50;;;14.12;95.70
8101;BME280;4093;53.470;9.832;2022-09-27T05:40:54;99036.38;;;14.02;96.14
8101;BME280;4093;53.470;9.832;2022-09-27T05:43:22;99039.84;;;14.17;95.04
8101;BME280;4093;53.470;9.832;2022-09-27T05:45:50;99037.38;;;13.99;96.14
8101;BME280;4093;53.470;9.832;2022-09-27T05:48:18;99045.88;;;13.73;98.21
8101;BME280;4093;53.470;9.832;2022-09-27T05:50:47;99047.78;;;13.99;96.64
8101;BME280;4093;53.470;9.832;2022-09-27T05:53:15;99047.06;;;13.67;97.98
8101;BME280;4093;53.470;9.832;2022-09-27T05:55:43;99049.97;;;13.77;97.75
8101;BME280;4093;53.470;9.832;2022-09-27T05:58:12;99052.31;;;13.51;99.02
8101;BME280;4093;53.470;9.832;2022-09-27T06:00:41;99049.91;;;13.62;97.77
8101;BME280;4093;53.470;9.832;2022-09-27T06:03:11;99051.56;;;13.79;96.78
8101;BME280;4093;53.470;9.832;2022-09-27T06:05:40;99067.34;;;13.91;96.91
8101;BME280;4093;53.470;9.832;2022-09-27T06:08:09;99065.81;;;13.72;97.29
8101;BME280;4093;53.470;9.832;2022-09-27T06:10:38;99062.19;;;13.60;98.31
8101;BME280;4093;53.470;9.832;2022-09-27T06:13:08;99069.22;;;14.03;96.44
8101;BME280;4093;53.470;9.832;2022-09-27T06:15:39;99068.97;;;14.07;95.93
8101;BME280;4093;53.470;9.832;2022-09-27T06:18:09;99063.91;;;13.90;97.08
8101;BME280;4093;53.470;9.832;2022-09-27T06:20:38;99060.81;;;13.53;98.54
8101;BME280;4093;53.470;9.832;2022-09-27T06:23:08;99069.88;;;13.92;96.83
8101;BME280;4093;53.470;9.832;2022-09-27T06:25:37;99067.44;;;13.59;97.32
8101;BME280;4093;53.470;9.832;2022-09-27T06:28:05;99013.66;;;12.99;98.92
8101;BME280;4093;53.470;9.832;2022-09-27T06:30:38;99055.53;;;13.25;98.80
8101;BME280;4093;53.470;9.832;2022-09-27T06:33:09;99071.69;;;13.60;97.43
8101;BME280;4093;53.470;9.832;2022-09-27T06:35:39;99070.72;;;13.47;98.05
8101;BME280;4093;53.470;9.832;2022-09-27T06:38:09;99081.50;;;13.71;97.37
8101;BME280;4093;53.470;9.832;2022-09-27T06:40:37;99080.22;;;13.78;97.01
8101;BME280;4093;53.470;9.832;2022-09-27T06:43:08;99082.31;;;14.01;95.30
8101;BME280;4093;53.470;9.832;2022-09-27T06:45:36;99085.81;;;13.86;95.93
8101;BME280;4093;53.470;9.832;2022-09-27T06:48:06;99082.81;;;13.78;96.51
8101;BME280;4093;53.470;9.832;2022-09-27T06:50:37;99088.94;;;13.77;96.20
8101;BME280;4093;53.470;9.832;2022-09-27T06:53:07;99090.41;;;13.67;97.04
8101;BME280;4093;53.470;9.832;2022-09-27T06:55:36;99094.88;;;13.79;96.18
8101;BME280;4093;53.470;9.832;2022-09-27T06:58:04;99101.69;;;13.96;95.51
8101;BME280;4093;53.470;9.832;2022-09-27T07:00:51;99101.06;;;14.06;94.85
8101;BME280;4093;53.470;9.832;2022-09-27T07:03:22;99100.22;;;14.06;95.02
8101;BME280;4093;53.470;9.832;2022-09-27T07:06:04;99083.34;;;13.69;97.29
8101;BME280;4093;53.470;9.832;2022-09-27T07:08:32;99107.47;;;14.01;95.57
8101;BME280;4093;53.470;9.832;2022-09-27T07:11:03;99111.81;;;14.00;95.59
8101;BME280;4093;53.470;9.832;2022-09-27T07:13:32;99100.50;;;13.71;95.96
8101;BME280;4093;53.470;9.832;2022-09-27T07:16:02;99119.91;;;14.10;95.15
8101;BME280;4093;53.470;9.832;2022-09-27T07:18:32;99099.69;;;13.71;96.47
8101;BME280;4093;53.470;9.832;2022-09-27T07:20:59;99107.31;;;13.88;95.36
8101;BME280;4093;53.470;9.832;2022-09-27T07:23:27;99116.34;;;13.97;95.21
8101;BME280;4093;53.470;9.832;2022-09-27T07:25:55;99113.28;;;14.20;94.55
8101;BME280;4093;53.470;9.832;2022-09-27T07:28:23;99090.44;;;13.81;94.79
8101;BME280;4093;53.470;9.832;2022-09-27T07:30:53;99126.53;;;14.16;94.79
8101;BME280;4093;53.470;9.832;2022-09-27T07:33:23;99115.50;;;14.26;94.36
8101;BME280;4093;53.470;9.832;2022-09-27T07:35:52;99104.78;;;14.02;94.49
8101;BME280;4093;53.470;9.832;2022-09-27T07:38:20;99123.38;;;14.25;94.21
8101;BME280;4093;53.470;9.832;2022-09-27T07:40:48;99128.22;;;14.17;94.68
8101;BME280;4093;53.470;9.832;2022-09-27T07:43:16;99088.53;;;14.13;93.59
8101;BME280;4093;53.470;9.832;2022-09-27T07:45:45;99049.81;;;13.94;92.75
8101;BME280;4093;53.470;9.832;2022-09-27T07:48:15;99130.72;;;14.18;94.28
8101;BME280;4093;53.470;9.832;2022-09-27T07:50:43;99125.09;;;13.96;95.08
8101;BME280;4093;53.470;9.832;2022-09-27T07:53:12;99111.22;;;14.25;93.72
8101;BME280;4093;53.470;9.832;2022-09-27T07:55:40;99134.41;;;14.58;93.17
8101;BME280;4093;53.470;9.832;2022-09-27T07:58:10;99130.38;;;14.39;92.94
8101;BME280;4093;53.470;9.832;2022-09-27T08:00:39;99132.00;;;14.25;93.94
8101;BME280;4093;53.470;9.832;2022-09-27T08:03:09;99088.06;;;13.92;94.93
8101;BME280;4093;53.470;9.832;2022-09-27T08:05:39;99100.72;;;14.12;94.31
8101;BME280;4093;53.470;9.832;2022-09-27T08:08:08;99133.50;;;14.15;94.97
8101;BME280;4093;53.470;9.832;2022-09-27T08:10:37;99143.47;;;14.23;94.19
8101;BME280;4093;53.470;9.832;2022-09-27T08:13:10;99153.75;;;14.54;93.95
8101;BME280;4093;53.470;9.832;2022-09-27T08:15:38;99156.69;;;14.48;93.23
8101;BME280;4093;53.470;9.832;2022-09-27T08:18:06;99132.50;;;14.32;93.58
8101;BME280;4093;53.470;9.832;2022-09-27T08:20:35;99145.06;;;14.40;92.69
8101;BME280;4093;53.470;9.832;2022-09-27T08:23:03;99150.97;;;13.97;96.29
8101;BME280;4093;53.470;9.832;2022-09-27T08:25:31;99152.75;;;13.97;95.78
8101;BME280;4093;53.470;9.832;2022-09-27T08:28:01;99162.25;;;14.42;93.93
8101;BME280;4093;53.470;9.832;2022-09-27T08:30:30;99142.72;;;14.35;93.95
8101;BME280;4093;53.470;9.832;2022-09-27T08:33:00;99167.75;;;14.22;96.30
8101;BME280;4093;53.470;9.832;2022-09-27T08:35:30;99173.84;;;14.06;95.23
8101;BME280;4093;53.470;9.832;2022-09-27T08:38:02;99179.47;;;14.29;94.57
8101;BME280;4093;53.470;9.832;2022-09-27T08:40:41;99178.88;;;14.09;94.07
8101;BME280;4093;53.470;9.832;2022-09-27T08:43:19;99185.78;;;14.25;93.65
8101;BME280;4093;53.470;9.832;2022-09-27T08:46:08;99183.34;;;14.22;93.46
8101;BME280;4093;53.470;9.832;2022-09-27T08:48:40;99180.41;;;13.82;94.22
8101;BME280;4093;53.470;9.832;2022-09-27T08:51:11;99178.66;;;13.98;94.45
8101;BME280;4093;53.470;9.832;2022-09-27T08:53:43;99165.50;;;14.16;92.99
8101;BME280;4093;53.470;9.832;2022-09-27T08:56:14;99191.06;;;14.53;92.49
8101;BME280;4093;53.470;9.832;2022-09-27T08:58:51;99192.13;;;14.51;92.37
8101;BME280;4093;53.470;9.832;2022-09-27T09:01:20;99145.13;;;14.24;91.73
8101;BME280;4093;53.470;9.832;2022-09-27T09:03:56;99169.03;;;14.45;92.19
8101;BME280;4093;53.470;9.832;2022-09-27T09:06:27;99193.44;;;14.42;93.20
8101;BME280;4093;53.470;9.832;2022-09-27T09:09:02;99190.56;;;14.47;92.63
8101;BME280;4093;53.470;9.832;2022-09-27T09:11:43;99193.78;;;14.52;92.65
8101;BME280;4093;53.470;9.832;2022-09-27T09:14:59;99204.75;;;14.41;94.03
8101;BME280;4093;53.470;9.832;2022-09-27T09:17:40;99200.38;;;14.57;92.41
8101;BME280;4093;53.470;9.832;2022-09-27T09:20:28;99202.69;;;14.62;91.66
8101;BME280;4093;53.470;9.832;2022-09-27T09:23:16;99209.38;;;14.52;92.89
8101;BME280;4093;53.470;9.832;2022-09-27T09:25:53;99148.97;;;14.02;93.05
8101;BME280;4093;53.470;9.832;2022-09-27T09:28:34;99211.28;;;14.64;93.02
8101;BME280;4093;53.470;9.832;2022-09-27T09:31:13;99204.88;;;14.70;92.56
8101;BME280;4093;53.470;9.832;2022-09-27T09:33:46;99211.81;;;14.55;92.62
8101;BME280;4093;53.470;9.832;2022-09-27T09:36:24;99165.78;;;14.11;94.29
8101;BME280;4093;53.470;9.832;2022-09-27T09:38:55;99210.31;;;14.51;93.60
8101;BME280;4093;53.470;9.832;2022-09-27T09:41:27;99213.50;;;14.85;92.65
8101;BME280;4093;53.470;9.832;2022-09-27T09:44:00;99215.28;;;15.13;92.60
8101;BME280;4093;53.470;9.832;2022-09-27T09:46:33;99226.53;;;15.27;92.26
8101;BME280;4093;53.470;9.832;2022-09-27T09:49:15;99216.50;;;14.93;93.35
8101;BME280;4093;53.470;9.832;2022-09-27T09:51:47;99221.13;;;15.31;90.83
8101;BME280;4093;53.470;9.832;2022-09-27T09:54:23;99142.25;;;14.73;92.25
8101;BME280;4093;53.470;9.832;2022-09-27T09:56:58;99213.50;;;15.27;90.86
8101;BME280;4093;53.470;9.832;2022-09-27T09:59:33;99202.56;;;14.79;90.85
8101;BME280;4093;53.470;9.832;2022-09-27T10:02:17;99210.06;;;15.13;91.53
8101;BME280;4093;53.470;9.832;2022-09-27T10:04:48;99221.97;;;15.45;90.26
8101;BME280;4093;53.470;9.832;2022-09-27T10:07:19;99215.47;;;15.24;90.44
8101;BME280;4093;53.470;9.832;2022-09-27T10:09:47;99195.13;;;15.02;91.02
8101;BME280;4093;53.470;9.832;2022-09-27T10:12:16;99208.94;;;15.31;90.57
8101;BME280;4093;53.470;9.832;2022-09-27T10:14:46;99218.97;;;15.37;91.28
8101;BME280;4093;53.470;9.832;2022-09-27T10:17:19;99219.22;;;15.61;90.20
8101;BME280;4093;53.470;9.832;2022-09-27T10:19:48;99220.31;;;15.30;89.45
8101;BME280;4093;53.470;9.832;2022-09-27T10:22:22;99221.59;;;15.52;90.23
8101;BME280;4093;53.470;9.832;2022-09-27T10:24:56;99221.47;;;15.53;88.42
8101;BME280;4093;53.470;9.832;2022-09-27T10:27:25;99222.84;;;15.73;89.65
8101;BME280;4093;53.470;9.832;2022-09-27T10:29:57;99227.88;;;15.47;90.02
8101;BME280;4093;53.470;9.832;2022-09-27T10:32:30;99229.34;;;15.80;88.63
8101;BME280;4093;53.470;9.832;2022-09-27T10:35:32;99227.13;;;15.60;88.41
8101;BME280;4093;53.470;9.832;2022-09-27T10:38:23;99172.88;;;15.25;88.18
8101;BME280;4093;53.470;9.832;2022-09-27T10:40:53;99224.88;;;15.82;87.99
8101;BME280;4093;53.470;9.832;2022-09-27T10:43:28;99228.22;;;16.11;87.75
8101;BME280;4093;53.470;9.832;2022-09-27T10:46:03;99225.69;;;16.10;86.65
8101;BME280;4093;53.470;9.832;2022-09-27T10:48:34;99172.09;;;15.37;87.75
8101;BME280;4093;53.470;9.832;2022-09-27T10:51:04;99220.81;;;15.49;88.69
8101;BME280;4093;53.470;9.832;2022-09-27T10:53:34;99227.97;;;15.75;89.00
8101;BME280;4093;53.470;9.832;2022-09-27T10:56:03;99227.66;;;15.79;89.42
8101;BME280;4093;53.470;9.832;2022-09-27T10:58:32;99231.88;;;16.09;87.06
8101;BME280;4093;53.470;9.832;2022-09-27T11:01:03;99231.97;;;16.20;86.64
8101;BME280;4093;53.470;9.832;2022-09-27T11:03:36;99236.69;;;16.68;85.18
8101;BME280;4093;53.470;9.832;2022-09-27T11:06:18;99227.97;;;16.41;86.74
8101;BME280;4093;53.470;9.832;2022-09-27T11:08:47;99237.19;;;16.60;86.71
8101;BME280;4093;53.470;9.832;2022-09-27T11:11:17;99222.75;;;16.41;85.59
8101;BME280;4093;53.470;9.832;2022-09-27T11:13:58;99237.22;;;16.85;84.18
8101;BME280;4093;53.470;9.832;2022-09-27T11:16:41;99216.84;;;16.52;85.97
8101;BME280;4093;53.470;9.832;2022-09-27T11:19:26;99215.13;;;16.38;85.04
8101;BME280;4093;53.470;9.832;2022-09-27T11:22:00;99219.63;;;16.36;84.93
8101;BME280;4093;53.470;9.832;2022-09-27T11:24:45;99227.38;;;16.63;84.05
8101;BME280;4093;53.470;9.832;2022-09-27T11:27:30;99220.72;;;16.72;83.36
8101;BME280;4093;53.470;9.832;2022-09-27T11:30:09;99209.28;;;16.35;83.94
8101;BME280;4093;53.470;9.832;2022-09-27T11:32:58;99221.84;;;16.55;85.67
8101;BME280;4093;53.470;9.832;2022-09-27T11:35:56;99215.88;;;16.53;85.08
8101;BME280;4093;53.470;9.832;2022-09-27T11:38:30;99213.31;;;16.26;86.02
8101;BME280;4093;53.470;9.832;2022-09-27T11:41:26;99225.47;;;16.93;84.91
8101;BME280;4093;53.470;9.832;2022-09-27T11:44:20;99199.44;;;16.26;85.53
8101;BME280;4093;53.470;9.832;2022-09-27T11:46:57;99206.59;;;16.49;84.88
8101;BME280;4093;53.470;9.832;2022-09-27T11:52:36;99211.75;;;16.11;85.79
8101;BME280;4093;53.470;9.832;2022-09-27T11:55:19;99214.50;;;16.35;85.27
8101;BME280;4093;53.470;9.832;2022-09-27T11:57:58;99208.03;;;16.40;84.32
8101;BME280;4093;53.470;9.832;2022-09-27T12:00:37;99213.97;;;16.17;86.77
8101;BME280;4093;53.470;9.832;2022-09-27T12:06:21;99222.25;;;16.36;86.13
8101;BME280;4093;53.470;9.832;2022-09-27T12:09:02;99207.03;;;16.16;87.15
8101;BME280;4093;53.470;9.832;2022-09-27T12:11:36;99231.50;;;16.93;86.03
8101;BME280;4093;53.470;9.832;2022-09-27T12:14:10;99229.72;;;16.81;86.07
8101;BME280;4093;53.470;9.832;2022-09-27T12:16:41;99229.19;;;16.88;84.07
8101;BME280;4093;53.470;9.832;2022-09-27T12:19:16;99217.47;;;16.16;86.26
8101;BME280;4093;53.470;9.832;2022-09-27T12:21:46;99224.59;;;16.14;85.88
8101;BME280;4093;53.470;9.832;2022-09-27T12:24:18;99227.47;;;16.36;84.99
8101;BME280;4093;53.470;9.832;2022-09-27T12:26:49;99229.78;;;16.54;84.68
8101;BME280;4093;53.470;9.832;2022-09-27T12:29:21;99224.78;;;16.11;85.49
8101;BME280;4093;53.470;9.832;2022-09-27T12:31:56;99198.16;;;15.37;86.62
8101;BME280;4093;53.470;9.832;2022-09-27T12:34:34;99236.66;;;16.02;86.43
8101;BME280;4093;53.470;9.832;2022-09-27T12:37:09;99209.81;;;15.73;85.82
8101;BME280;4093;53.470;9.832;2022-09-27T12:39:47;99237.31;;;15.91;87.10
8101;BME280;4093;53.470;9.832;2022-09-27T12:42:20;99198.72;;;15.84;86.88
8101;BME280;4093;53.470;9.832;2022-09-27T12:44:50;99237.75;;;15.71;86.98
8101;BME280;4093;53.470;9.832;2022-09-27T12:47:31;99240.47;;;15.96;86.38
8101;BME280;4093;53.470;9.832;2022-09-27T12:50:10;99241.53;;;16.07;85.69
8101;BME280;4093;53.470;9.832;2022-09-27T12:52:42;99232.97;;;15.92;83.53
8101;BME280;4093;53.470;9.832;2022-09-27T12:55:31;99227.50;;;15.54;84.10
8101;BME280;4093;53.470;9.832;2022-09-27T12:58:30;99235.56;;;15.92;83.23
8101;BME280;4093;53.470;9.832;2022-09-27T13:01:06;99240.66;;;15.93;84.36
8101;BME280;4093;53.470;9.832;2022-09-27T13:03:56;99226.00;;;15.78;82.92
8101;BME280;4093;53.470;9.832;2022-09-27T13:06:44;99239.63;;;15.55;83.95
8101;BME280;4093;53.470;9.832;2022-09-27T13:12:15;99227.63;;;15.52;84.74
8101;BME280;4093;53.470;9.832;2022-09-27T13:14:52;99220.97;;;15.75;84.09
8101;BME280;4093;53.470;9.832;2022-09-27T13:17:47;99244.81;;;15.69;84.66
8101;BME280;4093;53.470;9.832;2022-09-27T13:26:49;99261.53;;;15.93;83.69
8101;BME280;4093;53.470;9.832;2022-09-27T13:29:27;99261.09;;;16.14;81.88
8101;BME280;4093;53.470;9.832;2022-09-27T13:32:18;99263.06;;;15.69;82.85
8101;BME280;4093;53.470;9.832;2022-09-27T13:34:47;99266.88;;;15.78;84.24
8101;BME280;4093;53.470;9.832;2022-09-27T13:37:44;99266.13;;;15.61;83.97
8101;BME280;4093;53.470;9.832;2022-09-27T13:40:26;99282.41;;;15.65;83.94
8101;BME280;4093;53.470;9.832;2022-09-27T13:43:09;99289.75;;;15.87;82.96
8101;BME280;4093;53.470;9.832;2022-09-27T13:45:50;99278.44;;;15.45;85.13
8101;BME280;4093;53.470;9.832;2022-09-27T13:48:25;99286.00;;;14.91;87.09
8101;BME280;4093;53.470;9.832;2022-09-27T13:51:01;99296.75;;;15.58;84.37
8101;BME280;4093;53.470;9.832;2022-09-27T13:53:32;99287.28;;;15.42;85.13
8101;BME280;4093;53.470;9.832;2022-09-27T13:56:01;99299.09;;;15.77;84.02
8101;BME280;4093;53.470;9.832;2022-09-27T13:58:34;99300.56;;;15.81;82.82
8101;BME280;4093;53.470;9.832;2022-09-27T14:01:15;99302.13;;;15.12;85.73
8101;BME280;4093;53.470;9.832;2022-09-27T14:03:54;99297.59;;;14.71;86.07
8101;BME280;4093;53.470;9.832;2022-09-27T14:06:25;99302.66;;;14.88;86.84
8101;BME280;4093;53.470;9.832;2022-09-27T14:08:57;99314.50;;;15.08;87.07
8101;BME280;4093;53.470;9.832;2022-09-27T14:11:29;99317.72;;;14.97;88.60
8101;BME280;4093;53.470;9.832;2022-09-27T14:14:00;99319.16;;;15.17;87.38